sensor_id;sensor_type;location;lat;lon;timestamp;temperature;humidity
31809;DHT22;18379;48.208;-1.518;2023-05-24T00:00:54;11.10;99.90
31809;DHT22;18379;48.208;-1.518;2023-05-24T00:05:55;11.00;99.90
31809;DHT22;18379;48.208;-1.518;2023-05-24T00:10:56;10.90;99.90
31809;DHT22;18379;48.208;-1.518;2023-05-24T00:15:57;10.90;99.90
31809;DHT22;18379;48.208;-1.518;2023-05-24T00:20:58;10.90;99.90
31809;DHT22;18379;48.208;-1.518;2023-05-24T00:25:59;10.90;99.90
31809;DHT22;18379;48.208;-1.518;2023-05-24T00:31:01;10.80;99.90
31809;DHT22;18379;48.208;-1.518;2023-05-24T00:36:07;10.80;99.90
31809;DHT22;18379;48.208;-1.518;2023-05-24T00:41:16;10.80;99.90
31809;DHT22;18379;48.208;-1.518;2023-05-24T00:46:26;10.60;99.90
31809;DHT22;18379;48.208;-1.518;2023-05-24T00:51:27;10.60;99.90
31809;DHT22;18379;48.208;-1.518;2023-05-24T00:56:31;10.60;99.90
31809;DHT22;18379;48.208;-1.518;2023-05-24T01:01:47;10.50;99.90
31809;DHT22;18379;48.208;-1.518;2023-05-24T01:12:55;10.30;99.90
31809;DHT22;18379;48.208;-1.518;2023-05-24T01:28:02;10.10;99.90
31809;DHT22;18379;48.208;-1.518;2023-05-24T01:33:04;10.00;99.90
31809;DHT22;18379;48.208;-1.518;2023-05-24T01:38:05;9.90;99.90
31809;DHT22;18379;48.208;-1.518;2023-05-24T01:43:32;9.90;99.90
31809;DHT22;18379;48.208;-1.518;2023-05-24T01:53:53;9.70;99.90
31809;DHT22;18379;48.208;-1.518;2023-05-24T01:58:56;9.70;99.90
31809;DHT22;18379;48.208;-1.518;2023-05-24T02:03:58;9.60;99.90
31809;DHT22;18379;48.208;-1.518;2023-05-24T02:08:59;9.50;99.90
31809;DHT22;18379;48.208;-1.518;2023-05-24T02:14:00;9.40;99.90
31809;DHT22;18379;48.208;-1.518;2023-05-24T02:19:01;9.30;99.90
31809;DHT22;18379;48.208;-1.518;2023-05-24T02:24:02;9.30;99.90
31809;DHT22;18379;48.208;-1.518;2023-05-24T02:29:03;9.20;99.90
31809;DHT22;18379;48.208;-1.518;2023-05-24T02:34:04;9.10;99.90
31809;DHT22;18379;48.208;-1.518;2023-05-24T02:39:05;9.10;99.90
31809;DHT22;18379;48.208;-1.518;2023-05-24T02:44:06;9.00;99.90
31809;DHT22;18379;48.208;-1.518;2023-05-24T02:49:07;9.00;99.90
31809;DHT22;18379;48.208;-1.518;2023-05-24T02:54:07;8.90;99.90
31809;DHT22;18379;48.208;-1.518;2023-05-24T02:59:08;8.90;99.90
31809;DHT22;18379;48.208;-1.518;2023-05-24T03:04:09;8.80;99.90
31809;DHT22;18379;48.208;-1.518;2023-05-24T03:09:10;8.80;99.90
31809;DHT22;18379;48.208;-1.518;2023-05-24T03:14:11;8.90;99.90
31809;DHT22;18379;48.208;-1.518;2023-05-24T03:19:12;8.80;99.90
31809;DHT22;18379;48.208;-1.518;2023-05-24T03:24:12;8.70;99.90
31809;DHT22;18379;48.208;-1.518;2023-05-24T03:29:13;8.70;99.90
31809;DHT22;18379;48.208;-1.518;2023-05-24T03:34:14;8.60;99.90
31809;DHT22;18379;48.208;-1.518;2023-05-24T03:39:15;8.60;99.90
31809;DHT22;18379;48.208;-1.518;2023-05-24T03:44:16;8.50;99.90
31809;DHT22;18379;48.208;-1.518;2023-05-24T03:49:16;8.60;99.90
31809;DHT22;18379;48.208;-1.518;2023-05-24T03:54:17;8.50;99.90
31809;DHT22;18379;48.208;-1.518;2023-05-24T03:59:18;8.50;99.90
31809;DHT22;18379;48.208;-1.518;2023-05-24T04:04:19;8.60;99.90
31809;DHT22;18379;48.208;-1.518;2023-05-24T04:09:22;8.50;99.90
31809;DHT22;18379;48.208;-1.518;2023-05-24T04:14:26;8.50;99.90
31809;DHT22;18379;48.208;-1.518;2023-05-24T04:19:27;8.40;99.90
31809;DHT22;18379;48.208;-1.518;2023-05-24T04:24:28;8.40;99.90
31809;DHT22;18379;48.208;-1.518;2023-05-24T04:29:29;8.40;99.90
31809;DHT22;18379;48.208;-1.518;2023-05-24T04:34:32;8.40;99.90
31809;DHT22;18379;48.208;-1.518;2023-05-24T04:39:35;8.40;99.90
31809;DHT22;18379;48.208;-1.518;2023-05-24T04:44:35;8.30;99.90
31809;DHT22;18379;48.208;-1.518;2023-05-24T04:49:36;8.40;99.90
31809;DHT22;18379;48.208;-1.518;2023-05-24T04:54:38;8.40;99.90
31809;DHT22;18379;48.208;-1.518;2023-05-24T04:59:38;8.50;99.90
31809;DHT22;18379;48.208;-1.518;2023-05-24T05:04:39;8.50;99.90
31809;DHT22;18379;48.208;-1.518;2023-05-24T05:09:40;8.60;99.90
31809;DHT22;18379;48.208;-1.518;2023-05-24T05:14:42;8.60;99.90
31809;DHT22;18379;48.208;-1.518;2023-05-24T05:19:43;8.70;99.90
31809;DHT22;18379;48.208;-1.518;2023-05-24T05:24:44;8.70;99.90
31809;DHT22;18379;48.208;-1.518;2023-05-24T05:29:44;8.70;99.90
31809;DHT22;18379;48.208;-1.518;2023-05-24T05:34:45;8.80;99.90
31809;DHT22;18379;48.208;-1.518;2023-05-24T05:39:46;8.80;99.90
31809;DHT22;18379;48.208;-1.518;2023-05-24T05:44:47;8.90;99.90
31809;DHT22;18379;48.208;-1.518;2023-05-24T05:49:48;9.00;99.90
31809;DHT22;18379;48.208;-1.518;2023-05-24T05:54:48;9.20;99.90
31809;DHT22;18379;48.208;-1.518;2023-05-24T05:59:49;9.40;99.90
31809;DHT22;18379;48.208;-1.518;2023-05-24T06:04:50;9.50;99.90
31809;DHT22;18379;48.208;-1.518;2023-05-24T06:09:51;9.80;99.90
31809;DHT22;18379;48.208;-1.518;2023-05-24T06:14:52;9.80;99.90
31809;DHT22;18379;48.208;-1.518;2023-05-24T06:19:54;10.00;99.90
31809;DHT22;18379;48.208;-1.518;2023-05-24T06:24:55;10.20;99.90
31809;DHT22;18379;48.208;-1.518;2023-05-24T06:29:56;10.30;99.90
31809;DHT22;18379;48.208;-1.518;2023-05-24T06:34:57;10.40;99.90
31809;DHT22;18379;48.208;-1.518;2023-05-24T06:39:58;10.40;99.90
31809;DHT22;18379;48.208;-1.518;2023-05-24T06:44:58;10.50;99.90
31809;DHT22;18379;48.208;-1.518;2023-05-24T06:50:00;10.50;99.90
31809;DHT22;18379;48.208;-1.518;2023-05-24T06:55:01;10.60;99.90
31809;DHT22;18379;48.208;-1.518;2023-05-24T07:00:02;10.90;99.90
31809;DHT22;18379;48.208;-1.518;2023-05-24T07:05:08;11.00;99.90
31809;DHT22;18379;48.208;-1.518;2023-05-24T07:10:11;11.20;99.90
31809;DHT22;18379;48.208;-1.518;2023-05-24T07:15:12;11.30;99.90
31809;DHT22;18379;48.208;-1.518;2023-05-24T07:20:13;11.50;99.90
31809;DHT22;18379;48.208;-1.518;2023-05-24T07:25:14;11.60;99.90
31809;DHT22;18379;48.208;-1.518;2023-05-24T07:30:15;11.80;99.90
31809;DHT22;18379;48.208;-1.518;2023-05-24T07:35:16;11.70;99.90
31809;DHT22;18379;48.208;-1.518;2023-05-24T07:40:17;11.90;99.90
31809;DHT22;18379;48.208;-1.518;2023-05-24T07:45:18;12.20;99.90
31809;DHT22;18379;48.208;-1.518;2023-05-24T07:50:19;12.20;99.90
31809;DHT22;18379;48.208;-1.518;2023-05-24T07:55:20;12.30;99.90
31809;DHT22;18379;48.208;-1.518;2023-05-24T08:00:21;12.50;99.90
31809;DHT22;18379;48.208;-1.518;2023-05-24T08:05:22;12.70;99.90
31809;DHT22;18379;48.208;-1.518;2023-05-24T08:10:23;12.80;99.90
31809;DHT22;18379;48.208;-1.518;2023-05-24T08:15:28;12.90;99.90
31809;DHT22;18379;48.208;-1.518;2023-05-24T08:20:28;13.20;99.90
31809;DHT22;18379;48.208;-1.518;2023-05-24T08:25:29;13.30;99.90
31809;DHT22;18379;48.208;-1.518;2023-05-24T08:30:31;13.60;99.90
31809;DHT22;18379;48.208;-1.518;2023-05-24T08:35:31;13.90;99.90
31809;DHT22;18379;48.208;-1.518;2023-05-24T08:40:32;14.10;99.90
31809;DHT22;18379;48.208;-1.518;2023-05-24T08:45:35;14.20;99.90
31809;DHT22;18379;48.208;-1.518;2023-05-24T08:50:37;14.10;99.90
31809;DHT22;18379;48.208;-1.518;2023-05-24T08:55:38;14.30;99.90
31809;DHT22;18379;48.208;-1.518;2023-05-24T09:00:39;14.50;99.90
31809;DHT22;18379;48.208;-1.518;2023-05-24T09:05:40;14.80;99.90
31809;DHT22;18379;48.208;-1.518;2023-05-24T09:10:42;15.20;99.90
31809;DHT22;18379;48.208;-1.518;2023-05-24T09:15:43;15.40;99.90
31809;DHT22;18379;48.208;-1.518;2023-05-24T09:20:44;15.40;99.90
31809;DHT22;18379;48.208;-1.518;2023-05-24T09:25:46;15.70;99.90
31809;DHT22;18379;48.208;-1.518;2023-05-24T09:30:58;15.60;99.80
31809;DHT22;18379;48.208;-1.518;2023-05-24T09:36:00;15.70;99.50
31809;DHT22;18379;48.208;-1.518;2023-05-24T09:41:04;15.90;98.80
31809;DHT22;18379;48.208;-1.518;2023-05-24T09:46:08;15.80;97.10
31809;DHT22;18379;48.208;-1.518;2023-05-24T09:51:10;15.90;96.60
31809;DHT22;18379;48.208;-1.518;2023-05-24T09:56:12;16.20;95.10
31809;DHT22;18379;48.208;-1.518;2023-05-24T10:01:14;16.60;96.60
31809;DHT22;18379;48.208;-1.518;2023-05-24T10:06:17;16.80;94.10
31809;DHT22;18379;48.208;-1.518;2023-05-24T10:11:18;16.90;92.30
31809;DHT22;18379;48.208;-1.518;2023-05-24T10:16:19;16.80;89.90
31809;DHT22;18379;48.208;-1.518;2023-05-24T10:21:22;16.70;90.10
31809;DHT22;18379;48.208;-1.518;2023-05-24T10:26:25;17.00;87.20
31809;DHT22;18379;48.208;-1.518;2023-05-24T10:31:38;17.40;87.80
31809;DHT22;18379;48.208;-1.518;2023-05-24T10:36:39;17.50;83.60
31809;DHT22;18379;48.208;-1.518;2023-05-24T10:41:41;17.60;83.80
31809;DHT22;18379;48.208;-1.518;2023-05-24T10:47:01;17.30;77.40
31809;DHT22;18379;48.208;-1.518;2023-05-24T10:52:10;17.50;77.10
31809;DHT22;18379;48.208;-1.518;2023-05-24T10:57:11;17.80;77.10
31809;DHT22;18379;48.208;-1.518;2023-05-24T11:02:12;17.90;75.80
31809;DHT22;18379;48.208;-1.518;2023-05-24T11:07:15;17.90;74.40
31809;DHT22;18379;48.208;-1.518;2023-05-24T11:12:17;18.20;73.70
31809;DHT22;18379;48.208;-1.518;2023-05-24T11:17:21;18.50;72.40
31809;DHT22;18379;48.208;-1.518;2023-05-24T11:22:24;18.60;71.30
31809;DHT22;18379;48.208;-1.518;2023-05-24T11:27:26;18.60;71.30
31809;DHT22;18379;48.208;-1.518;2023-05-24T11:32:27;18.70;70.40
31809;DHT22;18379;48.208;-1.518;2023-05-24T11:37:28;18.60;71.10
31809;DHT22;18379;48.208;-1.518;2023-05-24T11:42:33;18.70;68.80
31809;DHT22;18379;48.208;-1.518;2023-05-24T11:47:38;18.90;68.50
31809;DHT22;18379;48.208;-1.518;2023-05-24T11:52:41;18.90;68.50
31809;DHT22;18379;48.208;-1.518;2023-05-24T11:57:48;19.10;70.00
31809;DHT22;18379;48.208;-1.518;2023-05-24T12:02:57;19.80;70.60
31809;DHT22;18379;48.208;-1.518;2023-05-24T12:08:05;20.00;68.50
31809;DHT22;18379;48.208;-1.518;2023-05-24T12:13:21;19.60;65.50
31809;DHT22;18379;48.208;-1.518;2023-05-24T12:18:28;19.80;64.40
31809;DHT22;18379;48.208;-1.518;2023-05-24T12:23:29;19.70;64.00
31809;DHT22;18379;48.208;-1.518;2023-05-24T12:28:36;19.90;67.60
31809;DHT22;18379;48.208;-1.518;2023-05-24T12:33:38;20.00;64.20
31809;DHT22;18379;48.208;-1.518;2023-05-24T12:38:39;20.00;66.80
31809;DHT22;18379;48.208;-1.518;2023-05-24T12:43:41;20.40;67.80
31809;DHT22;18379;48.208;-1.518;2023-05-24T12:48:43;20.60;68.80
31809;DHT22;18379;48.208;-1.518;2023-05-24T12:53:45;20.40;68.10
31809;DHT22;18379;48.208;-1.518;2023-05-24T12:58:45;20.70;68.20
31809;DHT22;18379;48.208;-1.518;2023-05-24T13:03:46;20.50;67.50
31809;DHT22;18379;48.208;-1.518;2023-05-24T13:08:47;20.30;68.40
31809;DHT22;18379;48.208;-1.518;2023-05-24T13:13:48;20.50;67.60
31809;DHT22;18379;48.208;-1.518;2023-05-24T13:18:49;20.40;69.20
31809;DHT22;18379;48.208;-1.518;2023-05-24T13:23:50;21.30;69.60
31809;DHT22;18379;48.208;-1.518;2023-05-24T13:28:51;21.20;68.80
31809;DHT22;18379;48.208;-1.518;2023-05-24T13:33:53;20.70;70.90
31809;DHT22;18379;48.208;-1.518;2023-05-24T13:38:57;21.20;76.00
31809;DHT22;18379;48.208;-1.518;2023-05-24T13:44:00;21.20;71.60
31809;DHT22;18379;48.208;-1.518;2023-05-24T13:49:01;20.80;70.50
31809;DHT22;18379;48.208;-1.518;2023-05-24T13:54:02;21.10;72.50
31809;DHT22;18379;48.208;-1.518;2023-05-24T13:59:05;20.90;71.70
31809;DHT22;18379;48.208;-1.518;2023-05-24T14:04:06;21.20;75.20
31809;DHT22;18379;48.208;-1.518;2023-05-24T14:09:07;21.90;71.10
31809;DHT22;18379;48.208;-1.518;2023-05-24T14:14:08;21.50;71.80
31809;DHT22;18379;48.208;-1.518;2023-05-24T14:19:08;21.90;72.70
31809;DHT22;18379;48.208;-1.518;2023-05-24T14:24:09;21.40;72.60
31809;DHT22;18379;48.208;-1.518;2023-05-24T14:29:10;21.00;73.10
31809;DHT22;18379;48.208;-1.518;2023-05-24T14:34:11;21.60;73.70
31809;DHT22;18379;48.208;-1.518;2023-05-24T14:39:11;21.60;71.00
31809;DHT22;18379;48.208;-1.518;2023-05-24T14:44:12;21.60;72.50
31809;DHT22;18379;48.208;-1.518;2023-05-24T14:49:13;21.40;73.20
31809;DHT22;18379;48.208;-1.518;2023-05-24T14:54:14;21.90;72.60
31809;DHT22;18379;48.208;-1.518;2023-05-24T14:59:15;22.00;74.30
31809;DHT22;18379;48.208;-1.518;2023-05-24T15:04:15;23.00;71.80
31809;DHT22;18379;48.208;-1.518;2023-05-24T15:09:16;23.40;70.20
31809;DHT22;18379;48.208;-1.518;2023-05-24T15:14:17;23.40;70.70
31809;DHT22;18379;48.208;-1.518;2023-05-24T15:19:18;24.30;69.50
31809;DHT22;18379;48.208;-1.518;2023-05-24T15:24:19;24.40;68.70
31809;DHT22;18379;48.208;-1.518;2023-05-24T15:29:19;24.50;67.10
31809;DHT22;18379;48.208;-1.518;2023-05-24T15:34:20;24.80;67.60
31809;DHT22;18379;48.208;-1.518;2023-05-24T15:39:21;24.10;67.30
31809;DHT22;18379;48.208;-1.518;2023-05-24T15:44:22;23.50;69.20
31809;DHT22;18379;48.208;-1.518;2023-05-24T15:49:23;23.70;72.90
31809;DHT22;18379;48.208;-1.518;2023-05-24T15:54:25;23.50;70.00
31809;DHT22;18379;48.208;-1.518;2023-05-24T15:59:26;23.20;71.20
31809;DHT22;18379;48.208;-1.518;2023-05-24T16:04:29;24.20;69.70
31809;DHT22;18379;48.208;-1.518;2023-05-24T16:09:31;23.80;70.70
31809;DHT22;18379;48.208;-1.518;2023-05-24T16:14:31;24.20;70.00
31809;DHT22;18379;48.208;-1.518;2023-05-24T16:19:32;24.90;68.40
31809;DHT22;18379;48.208;-1.518;2023-05-24T16:24:33;23.60;69.00
31809;DHT22;18379;48.208;-1.518;2023-05-24T16:29:34;24.90;67.90
31809;DHT22;18379;48.208;-1.518;2023-05-24T16:34:35;24.80;76.30
31809;DHT22;18379;48.208;-1.518;2023-05-24T16:39:36;23.40;90.20
31809;DHT22;18379;48.208;-1.518;2023-05-24T16:44:39;23.10;91.90
31809;DHT22;18379;48.208;-1.518;2023-05-24T16:49:43;23.20;92.50
31809;DHT22;18379;48.208;-1.518;2023-05-24T16:54:43;23.30;94.10
31809;DHT22;18379;48.208;-1.518;2023-05-24T16:59:44;23.10;95.20
31809;DHT22;18379;48.208;-1.518;2023-05-24T17:04:45;23.20;94.80
31809;DHT22;18379;48.208;-1.518;2023-05-24T17:09:46;23.20;96.20
31809;DHT22;18379;48.208;-1.518;2023-05-24T17:14:49;22.20;96.80
31809;DHT22;18379;48.208;-1.518;2023-05-24T17:19:50;22.10;98.80
31809;DHT22;18379;48.208;-1.518;2023-05-24T17:24:51;22.50;99.10
31809;DHT22;18379;48.208;-1.518;2023-05-24T17:29:51;22.00;99.90
31809;DHT22;18379;48.208;-1.518;2023-05-24T17:34:52;22.00;99.90
31809;DHT22;18379;48.208;-1.518;2023-05-24T17:39:53;21.70;99.90
31809;DHT22;18379;48.208;-1.518;2023-05-24T17:44:55;21.50;99.90
31809;DHT22;18379;48.208;-1.518;2023-05-24T17:49:56;21.60;99.90
31809;DHT22;18379;48.208;-1.518;2023-05-24T17:54:59;21.60;99.90
31809;DHT22;18379;48.208;-1.518;2023-05-24T18:00:03;21.70;99.90
31809;DHT22;18379;48.208;-1.518;2023-05-24T18:05:05;21.30;99.90
31809;DHT22;18379;48.208;-1.518;2023-05-24T18:10:07;21.30;99.90
31809;DHT22;18379;48.208;-1.518;2023-05-24T18:15:08;20.80;99.90
31809;DHT22;18379;48.208;-1.518;2023-05-24T18:20:09;20.50;99.90
31809;DHT22;18379;48.208;-1.518;2023-05-24T18:25:11;19.90;99.90
31809;DHT22;18379;48.208;-1.518;2023-05-24T18:30:12;19.10;99.90
31809;DHT22;18379;48.208;-1.518;2023-05-24T18:35:13;18.70;99.90
31809;DHT22;18379;48.208;-1.518;2023-05-24T18:40:14;18.20;99.90
31809;DHT22;18379;48.208;-1.518;2023-05-24T18:45:18;17.90;99.90
31809;DHT22;18379;48.208;-1.518;2023-05-24T18:50:19;17.60;99.90
31809;DHT22;18379;48.208;-1.518;2023-05-24T18:55:22;17.40;99.90
31809;DHT22;18379;48.208;-1.518;2023-05-24T19:00:23;17.30;99.90
31809;DHT22;18379;48.208;-1.518;2023-05-24T19:05:24;17.20;99.90
31809;DHT22;18379;48.208;-1.518;2023-05-24T19:10:24;17.00;99.90
31809;DHT22;18379;48.208;-1.518;2023-05-24T19:15:26;16.80;99.90
31809;DHT22;18379;48.208;-1.518;2023-05-24T19:20:30;16.70;99.90
31809;DHT22;18379;48.208;-1.518;2023-05-24T19:25:31;16.60;99.90
31809;DHT22;18379;48.208;-1.518;2023-05-24T19:30:37;16.40;99.90
31809;DHT22;18379;48.208;-1.518;2023-05-24T19:35:38;16.30;99.90
31809;DHT22;18379;48.208;-1.518;2023-05-24T19:40:41;16.10;99.90
31809;DHT22;18379;48.208;-1.518;2023-05-24T19:45:42;16.00;99.90
31809;DHT22;18379;48.208;-1.518;2023-05-24T19:50:43;15.80;99.90
31809;DHT22;18379;48.208;-1.518;2023-05-24T19:55:44;15.70;99.90
31809;DHT22;18379;48.208;-1.518;2023-05-24T20:00:46;15.60;99.90
31809;DHT22;18379;48.208;-1.518;2023-05-24T20:05:47;15.40;99.90
31809;DHT22;18379;48.208;-1.518;2023-05-24T20:10:48;15.40;99.90
31809;DHT22;18379;48.208;-1.518;2023-05-24T20:15:50;15.30;99.90
31809;DHT22;18379;48.208;-1.518;2023-05-24T20:20:51;15.20;99.90
31809;DHT22;18379;48.208;-1.518;2023-05-24T20:25:55;15.10;99.90
31809;DHT22;18379;48.208;-1.518;2023-05-24T20:30:56;15.00;99.90
31809;DHT22;18379;48.208;-1.518;2023-05-24T20:35:57;15.00;99.90
31809;DHT22;18379;48.208;-1.518;2023-05-24T20:41:00;14.90;99.90
31809;DHT22;18379;48.208;-1.518;2023-05-24T20:46:03;14.80;99.90
31809;DHT22;18379;48.208;-1.518;2023-05-24T20:51:05;14.70;99.90
31809;DHT22;18379;48.208;-1.518;2023-05-24T20:56:07;14.70;99.90
31809;DHT22;18379;48.208;-1.518;2023-05-24T21:01:08;14.50;99.90
31809;DHT22;18379;48.208;-1.518;2023-05-24T21:06:09;14.50;99.90
31809;DHT22;18379;48.208;-1.518;2023-05-24T21:11:10;14.50;99.90
31809;DHT22;18379;48.208;-1.518;2023-05-24T21:16:11;14.40;99.90
31809;DHT22;18379;48.208;-1.518;2023-05-24T21:21:11;14.30;99.90
31809;DHT22;18379;48.208;-1.518;2023-05-24T21:26:12;14.30;99.90
31809;DHT22;18379;48.208;-1.518;2023-05-24T21:31:13;14.30;99.90
31809;DHT22;18379;48.208;-1.518;2023-05-24T21:36:13;14.20;99.90
31809;DHT22;18379;48.208;-1.518;2023-05-24T21:41:14;14.20;99.90
31809;DHT22;18379;48.208;-1.518;2023-05-24T21:46:15;14.10;99.90
31809;DHT22;18379;48.208;-1.518;2023-05-24T21:51:16;14.10;99.90
31809;DHT22;18379;48.208;-1.518;2023-05-24T21:56:17;14.00;99.90
31809;DHT22;18379;48.208;-1.518;2023-05-24T22:01:18;13.90;99.90
31809;DHT22;18379;48.208;-1.518;2023-05-24T22:06:18;13.90;99.90
31809;DHT22;18379;48.208;-1.518;2023-05-24T22:11:19;13.80;99.90
31809;DHT22;18379;48.208;-1.518;2023-05-24T22:16:21;13.80;99.90
31809;DHT22;18379;48.208;-1.518;2023-05-24T22:21:22;13.70;99.90
31809;DHT22;18379;48.208;-1.518;2023-05-24T22:26:23;13.70;99.90
31809;DHT22;18379;48.208;-1.518;2023-05-24T22:31:26;13.60;99.90
31809;DHT22;18379;48.208;-1.518;2023-05-24T22:36:30;13.50;99.90
31809;DHT22;18379;48.208;-1.518;2023-05-24T22:41:32;13.40;99.90
31809;DHT22;18379;48.208;-1.518;2023-05-24T22:46:33;13.40;99.90
31809;DHT22;18379;48.208;-1.518;2023-05-24T22:51:33;13.30;99.90
31809;DHT22;18379;48.208;-1.518;2023-05-24T22:56:34;13.20;99.90
31809;DHT22;18379;48.208;-1.518;2023-05-24T23:01:35;13.20;99.90
31809;DHT22;18379;48.208;-1.518;2023-05-24T23:06:36;13.10;99.90
31809;DHT22;18379;48.208;-1.518;2023-05-24T23:11:38;13.00;99.90
31809;DHT22;18379;48.208;-1.518;2023-05-24T23:16:39;12.90;99.90
31809;DHT22;18379;48.208;-1.518;2023-05-24T23:21:44;12.80;99.90
31809;DHT22;18379;48.208;-1.518;2023-05-24T23:26:45;12.80;99.90
31809;DHT22;18379;48.208;-1.518;2023-05-24T23:31:46;12.70;99.90
31809;DHT22;18379;48.208;-1.518;2023-05-24T23:36:47;12.60;99.90
31809;DHT22;18379;48.208;-1.518;2023-05-24T23:41:47;12.50;99.90
31809;DHT22;18379;48.208;-1.518;2023-05-24T23:46:49;12.60;99.90
31809;DHT22;18379;48.208;-1.518;2023-05-24T23:51:50;12.50;99.90
31809;DHT22;18379;48.208;-1.518;2023-05-24T23:56:51;12.50;99.90
